Terminal Aerodrome Forecast
Issued by NWS Buffalo, NY

Home | Current Version | Previous Version | Text Only | Print | Product List | Glossary On
Versions: 1 2 3 4 5 6 7 8 9 10 11 12 13 14 15 16 17 18 19 20 21 22 23 24 25 26 27
000
FTUS41 KBUF 010700 AAA
TAFART
TAF AMD
KART 010752Z 0108/0206 23005KT 6SM BR OVC010
     FM011300 22004KT P6SM SCT015
     FM011500 23008KT P6SM SCT120
     FM012300 18004KT P6SM SCT120=

USA.gov is the U.S. government's official web portal to all federal, state and local government web resources and services.